createdAt,value
2019-01-23T09:59:11.231Z,-4.50
2019-01-23T12:52:21.194Z,-1.10
2019-01-23T12:55:20.486Z,-1.10
2019-01-23T12:58:12.806Z,-1.60
2019-01-23T13:00:54.204Z,-1.70
2019-01-23T13:03:31.498Z,-1.90
2019-01-23T13:06:06.746Z,-1.90
2019-01-23T13:08:40.127Z,-2.00
2019-01-23T13:11:14.915Z,-2.20
2019-01-23T13:13:47.031Z,-2.30
2019-01-23T13:16:18.162Z,-2.30
2019-01-23T13:18:49.808Z,-2.50
2019-01-23T13:21:21.028Z,-2.70
2019-01-23T13:23:53.195Z,-2.80
2019-01-23T13:26:27.031Z,-2.80
2019-01-23T13:29:02.997Z,-2.70
2019-01-23T13:31:36.767Z,-2.40
2019-01-23T13:34:12.125Z,-2.10
2019-01-23T13:36:45.922Z,-2.10
2019-01-23T13:39:21.594Z,-2.10
2019-01-23T13:41:59.193Z,-2.10
2019-01-23T13:44:30.852Z,-2.10
2019-01-23T13:47:09.306Z,-2.10
2019-01-23T13:49:52.034Z,-2.20
2019-01-23T13:52:25.628Z,-2.20
2019-01-23T13:55:02.870Z,-2.20
2019-01-23T13:57:41.288Z,-2.20
2019-01-23T14:00:18.922Z,-2.20
2019-01-23T14:02:49.599Z,-2.30
2019-01-23T14:05:21.747Z,-2.30
2019-01-23T14:07:52.977Z,-2.30
2019-01-23T14:10:23.912Z,-2.20
2019-01-23T14:12:55.582Z,-2.20
2019-01-23T14:15:30.630Z,-2.30
2019-01-23T14:18:15.549Z,-2.40
2019-01-23T14:52:54.949Z,-3.20
2019-01-23T15:31:28.047Z,-4.00
2019-01-23T15:34:20.638Z,-4.10
2019-01-23T15:46:27.273Z,-4.10
2019-01-23T15:48:58.043Z,-4.10
2019-01-23T15:51:36.784Z,-4.20
2019-01-23T16:34:11.631Z,-4.60
2019-01-23T16:42:05.540Z,-4.60
2019-01-23T16:44:57.458Z,-4.70
2019-01-23T16:47:37.114Z,-4.70
2019-01-23T16:50:23.897Z,-4.70
2019-01-23T16:53:22.847Z,-4.70
2019-01-23T16:56:13.526Z,-4.80
2019-01-23T16:58:54.164Z,-4.80
2019-01-23T17:01:47.036Z,-4.80
2019-01-23T17:04:24.026Z,-4.80
2019-01-23T17:07:01.331Z,-4.80
2019-01-23T17:09:38.782Z,-4.80
2019-01-23T17:12:50.519Z,-4.80
2019-01-23T17:15:44.849Z,-4.80
2019-01-23T17:18:55.529Z,-4.80
2019-01-23T17:25:21.669Z,-4.90
2019-01-23T17:28:16.906Z,-4.90
2019-01-23T17:31:09.707Z,-4.90
2019-01-23T17:34:13.011Z,-4.90
2019-01-23T17:36:52.676Z,-4.90
2019-01-23T18:18:04.420Z,-5.10
2019-01-23T18:23:54.693Z,-5.10
2019-01-23T18:26:45.804Z,-5.10
2019-01-23T18:29:16.529Z,-5.20
2019-01-23T18:32:03.605Z,-5.20
2019-01-23T18:34:46.623Z,-5.20
2019-01-23T18:47:47.243Z,-5.20
2019-01-23T18:50:43.934Z,-5.30
2019-01-23T18:56:39.885Z,-5.30
2019-01-23T19:19:09.886Z,-5.40
2019-01-23T19:21:55.035Z,-5.40
2019-01-23T19:24:48.707Z,-5.40
2019-01-23T19:27:52.058Z,-5.40
2019-01-23T19:34:35.682Z,-5.60
2019-01-23T19:37:41.962Z,-5.50
2019-01-23T19:56:41.640Z,-5.60
2019-01-23T19:59:15.862Z,-5.60
2019-01-23T20:12:15.751Z,-5.70
2019-01-23T20:21:38.547Z,-5.80
2019-01-23T20:24:30.716Z,-5.80
2019-01-23T20:27:14.022Z,-5.80
2019-01-23T20:33:07.207Z,-5.80
2019-01-23T20:38:32.845Z,-5.90
2019-01-23T20:41:12.640Z,-5.80
2019-01-23T20:43:55.153Z,-5.80
2019-01-23T20:46:46.093Z,-5.80
2019-01-23T20:49:27.675Z,-5.80
2019-01-23T20:55:04.896Z,-5.80
2019-01-23T20:57:50.935Z,-5.80
2019-01-23T21:00:33.944Z,-5.80
2019-01-23T21:03:11.108Z,-5.80
2019-01-23T21:14:59.114Z,-5.80
2019-01-23T21:18:18.266Z,-5.80
2019-01-23T21:20:49.038Z,-5.90
2019-01-23T21:23:40.857Z,-5.80
2019-01-23T21:29:19.866Z,-5.90
2019-01-23T21:32:01.936Z,-8.70
2019-01-23T21:34:34.486Z,-5.90
2019-01-23T21:37:05.755Z,-5.90
2019-01-23T21:39:44.575Z,-5.90
2019-01-23T21:48:15.937Z,-5.90
2019-01-23T21:50:47.012Z,-5.90
2019-01-23T21:53:17.960Z,-5.90
2019-01-23T21:55:48.996Z,-5.90
2019-01-23T21:58:19.987Z,-6.00
2019-01-23T22:01:30.811Z,-5.90
2019-01-23T22:04:09.900Z,-5.90
2019-01-23T22:06:40.596Z,-5.90
2019-01-23T22:09:11.432Z,-5.90
2019-01-23T22:12:17.364Z,-6.00
2019-01-23T22:14:48.169Z,-5.90
2019-01-23T22:17:19.044Z,-5.90
2019-01-23T22:19:49.759Z,-5.90
2019-01-23T22:22:20.363Z,-6.00
2019-01-23T22:24:51.470Z,-5.90
2019-01-23T22:27:21.963Z,-5.90
2019-01-23T22:29:52.621Z,-5.90
2019-01-23T22:32:23.365Z,-5.90
2019-01-23T22:34:54.248Z,-6.00
2019-01-23T22:39:55.315Z,-6.00
2019-01-23T22:42:26.956Z,-6.00
2019-01-23T22:44:57.995Z,-6.00
2019-01-23T22:47:28.938Z,-6.00
2019-01-23T22:49:59.752Z,-6.00
2019-01-23T22:52:30.676Z,-6.00
2019-01-23T22:55:01.320Z,-6.00
2019-01-23T22:57:31.830Z,-6.10
2019-01-23T23:00:02.509Z,-6.10
2019-01-23T23:02:33.425Z,-6.10
2019-01-23T23:05:05.088Z,-6.10
2019-01-23T23:07:35.676Z,-6.10
2019-01-23T23:10:10.693Z,-6.10
2019-01-23T23:12:41.297Z,-6.10
2019-01-23T23:15:13.397Z,-6.10
2019-01-23T23:17:44.217Z,-6.10
2019-01-23T23:20:15.616Z,-6.10
2019-01-23T23:22:46.193Z,-6.10
2019-01-23T23:25:17.278Z,-6.10
2019-01-23T23:27:48.146Z,-6.10
2019-01-23T23:30:24.502Z,-6.10
2019-01-23T23:32:55.542Z,-6.10
2019-01-23T23:35:26.643Z,-6.20
2019-01-23T23:37:57.130Z,-6.20
2019-01-23T23:40:27.676Z,-6.10
2019-01-23T23:42:58.390Z,-6.20
2019-01-23T23:45:29.779Z,-6.10
2019-01-23T23:48:00.369Z,-6.10
2019-01-23T23:50:30.875Z,-6.10
2019-01-23T23:53:01.793Z,-6.10
2019-01-23T23:55:32.478Z,-6.10
2019-01-23T23:58:03.124Z,-6.10
